sensor_id;sensor_type;location;lat;lon;timestamp;P1;durP1;ratioP1;P2;durP2;ratioP2
11735;SDS011;5924;51.398;7.088;2023-02-11T00:03:49;54.47;;;26.70;;
11735;SDS011;5924;51.398;7.088;2023-02-11T00:06:14;51.00;;;24.80;;
11735;SDS011;5924;51.398;7.088;2023-02-11T00:08:40;49.10;;;25.80;;
11735;SDS011;5924;51.398;7.088;2023-02-11T00:11:06;53.30;;;25.93;;
11735;SDS011;5924;51.398;7.088;2023-02-11T00:13:36;55.57;;;26.87;;
11735;SDS011;5924;51.398;7.088;2023-02-11T00:16:05;51.33;;;24.90;;
11735;SDS011;5924;51.398;7.088;2023-02-11T00:18:32;50.90;;;24.63;;
11735;SDS011;5924;51.398;7.088;2023-02-11T00:20:57;47.67;;;25.13;;
11735;SDS011;5924;51.398;7.088;2023-02-11T00:23:23;53.47;;;24.77;;
11735;SDS011;5924;51.398;7.088;2023-02-11T00:25:48;51.47;;;26.20;;
11735;SDS011;5924;51.398;7.088;2023-02-11T00:28:14;46.03;;;25.10;;
11735;SDS011;5924;51.398;7.088;2023-02-11T00:30:40;50.47;;;24.50;;
11735;SDS011;5924;51.398;7.088;2023-02-11T00:33:05;48.47;;;24.93;;
11735;SDS011;5924;51.398;7.088;2023-02-11T00:35:31;50.60;;;24.07;;
11735;SDS011;5924;51.398;7.088;2023-02-11T00:37:57;49.00;;;23.97;;
11735;SDS011;5924;51.398;7.088;2023-02-11T00:40:23;57.80;;;25.00;;
11735;SDS011;5924;51.398;7.088;2023-02-11T00:42:48;44.73;;;22.97;;
11735;SDS011;5924;51.398;7.088;2023-02-11T00:45:14;44.90;;;22.10;;
11735;SDS011;5924;51.398;7.088;2023-02-11T00:47:40;51.73;;;24.37;;
11735;SDS011;5924;51.398;7.088;2023-02-11T00:50:05;42.20;;;22.03;;
11735;SDS011;5924;51.398;7.088;2023-02-11T00:52:32;51.93;;;22.80;;
11735;SDS011;5924;51.398;7.088;2023-02-11T00:54:57;40.23;;;23.60;;
11735;SDS011;5924;51.398;7.088;2023-02-11T00:57:23;47.77;;;22.90;;
11735;SDS011;5924;51.398;7.088;2023-02-11T00:59:49;49.60;;;24.50;;
11735;SDS011;5924;51.398;7.088;2023-02-11T01:02:14;45.80;;;23.43;;
11735;SDS011;5924;51.398;7.088;2023-02-11T01:04:40;47.03;;;20.70;;
11735;SDS011;5924;51.398;7.088;2023-02-11T01:07:06;40.87;;;21.00;;
11735;SDS011;5924;51.398;7.088;2023-02-11T01:09:31;43.30;;;22.60;;
11735;SDS011;5924;51.398;7.088;2023-02-11T01:11:57;40.20;;;21.40;;
11735;SDS011;5924;51.398;7.088;2023-02-11T01:14:23;38.83;;;21.07;;
11735;SDS011;5924;51.398;7.088;2023-02-11T01:16:48;40.57;;;21.00;;
11735;SDS011;5924;51.398;7.088;2023-02-11T01:19:14;32.53;;;20.00;;
11735;SDS011;5924;51.398;7.088;2023-02-11T01:21:39;41.17;;;21.03;;
11735;SDS011;5924;51.398;7.088;2023-02-11T01:24:05;38.33;;;20.03;;
11735;SDS011;5924;51.398;7.088;2023-02-11T01:26:31;53.27;;;20.70;;
11735;SDS011;5924;51.398;7.088;2023-02-11T01:28:57;39.00;;;18.83;;
11735;SDS011;5924;51.398;7.088;2023-02-11T01:31:24;38.27;;;20.57;;
11735;SDS011;5924;51.398;7.088;2023-02-11T01:33:50;36.20;;;19.23;;
11735;SDS011;5924;51.398;7.088;2023-02-11T01:36:16;45.27;;;19.40;;
11735;SDS011;5924;51.398;7.088;2023-02-11T01:38:42;39.00;;;19.40;;
11735;SDS011;5924;51.398;7.088;2023-02-11T01:41:09;41.70;;;21.00;;
11735;SDS011;5924;51.398;7.088;2023-02-11T01:43:39;43.27;;;20.30;;
11735;SDS011;5924;51.398;7.088;2023-02-11T01:48:40;34.17;;;20.00;;
11735;SDS011;5924;51.398;7.088;2023-02-11T01:51:10;44.43;;;21.07;;
11735;SDS011;5924;51.398;7.088;2023-02-11T01:53:39;41.60;;;19.90;;
11735;SDS011;5924;51.398;7.088;2023-02-11T01:56:24;36.87;;;19.40;;
11735;SDS011;5924;51.398;7.088;2023-02-11T01:59:12;42.80;;;21.00;;
11735;SDS011;5924;51.398;7.088;2023-02-11T02:01:42;46.47;;;21.30;;
11735;SDS011;5924;51.398;7.088;2023-02-11T02:04:13;37.33;;;20.17;;
11735;SDS011;5924;51.398;7.088;2023-02-11T02:06:43;37.60;;;21.70;;
11735;SDS011;5924;51.398;7.088;2023-02-11T02:09:19;39.77;;;20.50;;
11735;SDS011;5924;51.398;7.088;2023-02-11T02:11:48;44.10;;;19.97;;
11735;SDS011;5924;51.398;7.088;2023-02-11T02:14:14;38.43;;;21.20;;
11735;SDS011;5924;51.398;7.088;2023-02-11T02:16:40;39.47;;;19.10;;
11735;SDS011;5924;51.398;7.088;2023-02-11T02:25:17;38.77;;;21.00;;
11735;SDS011;5924;51.398;7.088;2023-02-11T02:40:56;51.93;;;23.20;;
11735;SDS011;5924;51.398;7.088;2023-02-11T02:43:25;37.93;;;21.57;;
11735;SDS011;5924;51.398;7.088;2023-02-11T02:45:52;41.90;;;20.30;;
11735;SDS011;5924;51.398;7.088;2023-02-11T02:50:49;41.00;;;20.47;;
11735;SDS011;5924;51.398;7.088;2023-02-11T02:56:43;46.00;;;21.10;;
11735;SDS011;5924;51.398;7.088;2023-02-11T02:59:28;47.03;;;20.47;;
11735;SDS011;5924;51.398;7.088;2023-02-11T03:07:40;48.27;;;20.90;;
11735;SDS011;5924;51.398;7.088;2023-02-11T03:10:33;33.87;;;18.60;;
11735;SDS011;5924;51.398;7.088;2023-02-11T03:13:09;44.47;;;20.40;;
11735;SDS011;5924;51.398;7.088;2023-02-11T03:15:37;38.40;;;21.33;;
11735;SDS011;5924;51.398;7.088;2023-02-11T03:18:08;39.57;;;20.63;;
11735;SDS011;5924;51.398;7.088;2023-02-11T03:20:40;35.40;;;20.23;;
11735;SDS011;5924;51.398;7.088;2023-02-11T03:25:40;32.70;;;19.17;;
11735;SDS011;5924;51.398;7.088;2023-02-11T03:28:14;44.50;;;21.17;;
11735;SDS011;5924;51.398;7.088;2023-02-11T03:30:58;41.67;;;18.30;;
11735;SDS011;5924;51.398;7.088;2023-02-11T03:34:09;45.93;;;20.10;;
11735;SDS011;5924;51.398;7.088;2023-02-11T03:36:40;50.43;;;21.10;;
11735;SDS011;5924;51.398;7.088;2023-02-11T03:39:11;31.63;;;19.10;;
11735;SDS011;5924;51.398;7.088;2023-02-11T03:41:40;43.80;;;19.40;;
11735;SDS011;5924;51.398;7.088;2023-02-11T03:44:07;39.70;;;18.77;;
11735;SDS011;5924;51.398;7.088;2023-02-11T03:46:35;39.60;;;18.83;;
11735;SDS011;5924;51.398;7.088;2023-02-11T03:49:04;39.13;;;19.13;;
11735;SDS011;5924;51.398;7.088;2023-02-11T03:51:33;46.67;;;20.17;;
11735;SDS011;5924;51.398;7.088;2023-02-11T03:54:01;39.50;;;20.80;;
11735;SDS011;5924;51.398;7.088;2023-02-11T03:56:32;57.17;;;20.07;;
11735;SDS011;5924;51.398;7.088;2023-02-11T03:59:03;42.53;;;19.33;;
11735;SDS011;5924;51.398;7.088;2023-02-11T04:01:29;42.20;;;20.70;;
11735;SDS011;5924;51.398;7.088;2023-02-11T04:03:54;42.37;;;20.53;;
11735;SDS011;5924;51.398;7.088;2023-02-11T04:06:20;45.90;;;20.00;;
11735;SDS011;5924;51.398;7.088;2023-02-11T04:08:45;45.57;;;19.80;;
11735;SDS011;5924;51.398;7.088;2023-02-11T04:11:11;37.50;;;19.30;;
11735;SDS011;5924;51.398;7.088;2023-02-11T04:13:37;45.03;;;20.47;;
11735;SDS011;5924;51.398;7.088;2023-02-11T04:16:02;42.90;;;19.30;;
11735;SDS011;5924;51.398;7.088;2023-02-11T04:18:28;44.80;;;19.40;;
11735;SDS011;5924;51.398;7.088;2023-02-11T04:20:53;37.70;;;20.60;;
11735;SDS011;5924;51.398;7.088;2023-02-11T04:23:19;40.93;;;19.60;;
11735;SDS011;5924;51.398;7.088;2023-02-11T04:25:45;48.10;;;21.40;;
11735;SDS011;5924;51.398;7.088;2023-02-11T04:28:10;38.83;;;20.07;;
11735;SDS011;5924;51.398;7.088;2023-02-11T04:30:36;43.67;;;20.23;;
11735;SDS011;5924;51.398;7.088;2023-02-11T04:33:02;48.83;;;20.50;;
11735;SDS011;5924;51.398;7.088;2023-02-11T04:35:27;34.90;;;19.30;;
11735;SDS011;5924;51.398;7.088;2023-02-11T04:37:53;40.83;;;20.83;;
11735;SDS011;5924;51.398;7.088;2023-02-11T04:40:18;62.77;;;20.60;;
11735;SDS011;5924;51.398;7.088;2023-02-11T04:42:44;46.97;;;21.10;;
11735;SDS011;5924;51.398;7.088;2023-02-11T04:45:10;41.90;;;19.90;;
11735;SDS011;5924;51.398;7.088;2023-02-11T04:47:35;40.87;;;20.50;;
11735;SDS011;5924;51.398;7.088;2023-02-11T04:50:02;46.33;;;21.77;;
11735;SDS011;5924;51.398;7.088;2023-02-11T04:52:28;40.73;;;21.97;;
11735;SDS011;5924;51.398;7.088;2023-02-11T04:54:53;43.87;;;21.40;;
11735;SDS011;5924;51.398;7.088;2023-02-11T04:57:19;47.97;;;21.40;;
11735;SDS011;5924;51.398;7.088;2023-02-11T04:59:44;49.63;;;21.63;;
11735;SDS011;5924;51.398;7.088;2023-02-11T05:02:10;49.87;;;21.50;;
11735;SDS011;5924;51.398;7.088;2023-02-11T05:04:35;40.93;;;21.60;;
11735;SDS011;5924;51.398;7.088;2023-02-11T05:07:01;40.23;;;22.03;;
11735;SDS011;5924;51.398;7.088;2023-02-11T05:09:27;59.00;;;22.37;;
11735;SDS011;5924;51.398;7.088;2023-02-11T05:11:52;44.50;;;22.03;;
11735;SDS011;5924;51.398;7.088;2023-02-11T05:14:18;43.60;;;22.03;;
11735;SDS011;5924;51.398;7.088;2023-02-11T05:16:43;48.17;;;24.10;;
11735;SDS011;5924;51.398;7.088;2023-02-11T05:19:09;53.90;;;23.20;;
11735;SDS011;5924;51.398;7.088;2023-02-11T05:21:34;49.50;;;24.80;;
11735;SDS011;5924;51.398;7.088;2023-02-11T05:24:00;50.77;;;22.67;;
11735;SDS011;5924;51.398;7.088;2023-02-11T05:26:26;54.10;;;24.90;;
11735;SDS011;5924;51.398;7.088;2023-02-11T05:28:52;48.37;;;25.03;;
11735;SDS011;5924;51.398;7.088;2023-02-11T05:31:17;48.90;;;23.30;;
11735;SDS011;5924;51.398;7.088;2023-02-11T05:33:43;62.70;;;25.37;;
11735;SDS011;5924;51.398;7.088;2023-02-11T05:36:09;54.17;;;25.40;;
11735;SDS011;5924;51.398;7.088;2023-02-11T05:38:36;53.37;;;24.20;;
11735;SDS011;5924;51.398;7.088;2023-02-11T05:41:02;67.53;;;25.40;;
11735;SDS011;5924;51.398;7.088;2023-02-11T05:43:29;53.83;;;24.80;;
11735;SDS011;5924;51.398;7.088;2023-02-11T05:45:55;59.03;;;27.07;;
11735;SDS011;5924;51.398;7.088;2023-02-11T05:48:21;59.23;;;25.90;;
11735;SDS011;5924;51.398;7.088;2023-02-11T05:50:46;63.90;;;27.30;;
11735;SDS011;5924;51.398;7.088;2023-02-11T05:53:12;68.70;;;27.30;;
11735;SDS011;5924;51.398;7.088;2023-02-11T05:55:38;51.83;;;26.00;;
11735;SDS011;5924;51.398;7.088;2023-02-11T05:58:04;68.63;;;28.47;;
11735;SDS011;5924;51.398;7.088;2023-02-11T06:00:30;63.37;;;27.80;;
11735;SDS011;5924;51.398;7.088;2023-02-11T06:02:56;61.07;;;25.80;;
11735;SDS011;5924;51.398;7.088;2023-02-11T06:05:21;73.80;;;28.33;;
11735;SDS011;5924;51.398;7.088;2023-02-11T06:07:47;62.70;;;28.70;;
11735;SDS011;5924;51.398;7.088;2023-02-11T06:10:13;60.00;;;27.57;;
11735;SDS011;5924;51.398;7.088;2023-02-11T06:12:38;64.57;;;27.13;;
11735;SDS011;5924;51.398;7.088;2023-02-11T06:15:04;66.90;;;28.33;;
11735;SDS011;5924;51.398;7.088;2023-02-11T06:17:30;70.63;;;27.90;;
11735;SDS011;5924;51.398;7.088;2023-02-11T06:19:57;62.67;;;27.73;;
11735;SDS011;5924;51.398;7.088;2023-02-11T06:22:24;62.33;;;27.93;;
11735;SDS011;5924;51.398;7.088;2023-02-11T06:24:50;59.77;;;27.60;;
11735;SDS011;5924;51.398;7.088;2023-02-11T06:27:15;65.87;;;28.70;;
11735;SDS011;5924;51.398;7.088;2023-02-11T06:29:42;59.60;;;27.70;;
11735;SDS011;5924;51.398;7.088;2023-02-11T06:32:09;62.70;;;27.30;;
11735;SDS011;5924;51.398;7.088;2023-02-11T06:34:34;58.03;;;26.70;;
11735;SDS011;5924;51.398;7.088;2023-02-11T06:37:00;64.80;;;29.43;;
11735;SDS011;5924;51.398;7.088;2023-02-11T06:39:26;59.10;;;26.07;;
11735;SDS011;5924;51.398;7.088;2023-02-11T06:41:52;58.60;;;27.50;;
11735;SDS011;5924;51.398;7.088;2023-02-11T06:44:18;59.70;;;27.77;;
11735;SDS011;5924;51.398;7.088;2023-02-11T06:46:43;64.80;;;27.33;;
11735;SDS011;5924;51.398;7.088;2023-02-11T06:49:09;63.53;;;26.27;;
11735;SDS011;5924;51.398;7.088;2023-02-11T06:51:34;62.10;;;27.17;;
11735;SDS011;5924;51.398;7.088;2023-02-11T06:54:00;71.53;;;27.80;;
11735;SDS011;5924;51.398;7.088;2023-02-11T06:56:26;60.20;;;26.97;;
11735;SDS011;5924;51.398;7.088;2023-02-11T06:58:52;71.70;;;30.30;;
11735;SDS011;5924;51.398;7.088;2023-02-11T07:01:22;62.53;;;28.27;;
11735;SDS011;5924;51.398;7.088;2023-02-11T07:03:49;69.90;;;28.73;;
11735;SDS011;5924;51.398;7.088;2023-02-11T07:06:17;71.33;;;29.30;;
11735;SDS011;5924;51.398;7.088;2023-02-11T07:08:45;76.67;;;29.43;;
11735;SDS011;5924;51.398;7.088;2023-02-11T07:11:11;70.27;;;28.10;;
11735;SDS011;5924;51.398;7.088;2023-02-11T07:13:40;86.17;;;32.47;;
11735;SDS011;5924;51.398;7.088;2023-02-11T07:16:07;93.03;;;31.43;;
11735;SDS011;5924;51.398;7.088;2023-02-11T07:18:35;82.07;;;30.00;;
11735;SDS011;5924;51.398;7.088;2023-02-11T07:21:04;95.67;;;31.50;;
11735;SDS011;5924;51.398;7.088;2023-02-11T07:23:31;89.00;;;31.97;;
11735;SDS011;5924;51.398;7.088;2023-02-11T07:26:00;73.53;;;28.90;;
11735;SDS011;5924;51.398;7.088;2023-02-11T07:28:27;84.87;;;29.90;;
11735;SDS011;5924;51.398;7.088;2023-02-11T07:30:53;99.07;;;31.87;;
11735;SDS011;5924;51.398;7.088;2023-02-11T07:33:18;89.57;;;29.23;;
11735;SDS011;5924;51.398;7.088;2023-02-11T07:35:44;91.73;;;30.70;;
11735;SDS011;5924;51.398;7.088;2023-02-11T07:38:10;80.00;;;29.50;;
11735;SDS011;5924;51.398;7.088;2023-02-11T07:40:35;91.03;;;31.60;;
11735;SDS011;5924;51.398;7.088;2023-02-11T07:43:01;92.50;;;30.90;;
11735;SDS011;5924;51.398;7.088;2023-02-11T07:45:27;76.83;;;30.20;;
11735;SDS011;5924;51.398;7.088;2023-02-11T07:47:52;94.70;;;32.50;;
11735;SDS011;5924;51.398;7.088;2023-02-11T07:50:19;103.23;;;32.87;;
11735;SDS011;5924;51.398;7.088;2023-02-11T07:52:45;90.90;;;31.00;;
11735;SDS011;5924;51.398;7.088;2023-02-11T07:55:10;93.50;;;31.53;;
11735;SDS011;5924;51.398;7.088;2023-02-11T07:57:36;97.03;;;32.37;;
11735;SDS011;5924;51.398;7.088;2023-02-11T08:00:02;84.83;;;32.50;;
11735;SDS011;5924;51.398;7.088;2023-02-11T08:02:29;90.97;;;33.10;;
11735;SDS011;5924;51.398;7.088;2023-02-11T08:04:54;88.30;;;31.83;;
11735;SDS011;5924;51.398;7.088;2023-02-11T08:07:20;102.57;;;33.10;;
11735;SDS011;5924;51.398;7.088;2023-02-11T08:09:45;98.47;;;28.00;;
11735;SDS011;5924;51.398;7.088;2023-02-11T08:12:11;98.63;;;31.03;;
11735;SDS011;5924;51.398;7.088;2023-02-11T08:14:37;92.47;;;31.50;;
11735;SDS011;5924;51.398;7.088;2023-02-11T08:17:02;95.53;;;30.70;;
11735;SDS011;5924;51.398;7.088;2023-02-11T08:19:28;97.20;;;32.10;;
11735;SDS011;5924;51.398;7.088;2023-02-11T08:21:54;99.17;;;31.13;;
11735;SDS011;5924;51.398;7.088;2023-02-11T08:24:20;102.47;;;32.17;;
11735;SDS011;5924;51.398;7.088;2023-02-11T08:26:46;109.17;;;33.40;;
11735;SDS011;5924;51.398;7.088;2023-02-11T08:29:12;95.43;;;31.13;;
11735;SDS011;5924;51.398;7.088;2023-02-11T08:31:40;90.63;;;30.33;;
11735;SDS011;5924;51.398;7.088;2023-02-11T08:34:08;91.53;;;30.20;;
11735;SDS011;5924;51.398;7.088;2023-02-11T08:36:35;95.30;;;31.30;;
11735;SDS011;5924;51.398;7.088;2023-02-11T08:39:03;105.87;;;31.57;;
11735;SDS011;5924;51.398;7.088;2023-02-11T08:41:31;109.83;;;31.70;;
11735;SDS011;5924;51.398;7.088;2023-02-11T08:43:58;83.27;;;29.10;;
11735;SDS011;5924;51.398;7.088;2023-02-11T08:46:24;87.93;;;30.90;;
11735;SDS011;5924;51.398;7.088;2023-02-11T08:48:50;104.10;;;30.97;;
11735;SDS011;5924;51.398;7.088;2023-02-11T08:51:18;106.80;;;32.70;;
11735;SDS011;5924;51.398;7.088;2023-02-11T08:53:45;110.50;;;30.97;;
11735;SDS011;5924;51.398;7.088;2023-02-11T08:56:11;94.73;;;32.17;;
11735;SDS011;5924;51.398;7.088;2023-02-11T08:58:38;87.93;;;31.70;;
11735;SDS011;5924;51.398;7.088;2023-02-11T09:03:59;90.43;;;31.53;;
11735;SDS011;5924;51.398;7.088;2023-02-11T09:06:25;92.97;;;31.50;;
11735;SDS011;5924;51.398;7.088;2023-02-11T09:08:52;94.90;;;30.40;;
11735;SDS011;5924;51.398;7.088;2023-02-11T09:11:19;78.10;;;29.23;;
11735;SDS011;5924;51.398;7.088;2023-02-11T09:13:47;83.97;;;29.73;;
11735;SDS011;5924;51.398;7.088;2023-02-11T09:16:22;98.13;;;31.10;;
11735;SDS011;5924;51.398;7.088;2023-02-11T09:18:55;84.10;;;30.57;;
11735;SDS011;5924;51.398;7.088;2023-02-11T09:21:21;97.40;;;29.57;;
11735;SDS011;5924;51.398;7.088;2023-02-11T09:23:47;83.60;;;30.67;;
11735;SDS011;5924;51.398;7.088;2023-02-11T09:26:18;97.77;;;31.13;;
11735;SDS011;5924;51.398;7.088;2023-02-11T09:28:45;77.33;;;29.03;;
11735;SDS011;5924;51.398;7.088;2023-02-11T09:31:13;84.63;;;31.40;;
11735;SDS011;5924;51.398;7.088;2023-02-11T09:33:40;100.13;;;32.83;;
11735;SDS011;5924;51.398;7.088;2023-02-11T09:36:12;94.77;;;31.70;;
11735;SDS011;5924;51.398;7.088;2023-02-11T09:38:39;88.83;;;30.50;;
11735;SDS011;5924;51.398;7.088;2023-02-11T09:41:05;84.07;;;30.53;;
11735;SDS011;5924;51.398;7.088;2023-02-11T09:43:55;91.23;;;29.40;;
11735;SDS011;5924;51.398;7.088;2023-02-11T09:46:22;96.30;;;29.97;;
11735;SDS011;5924;51.398;7.088;2023-02-11T09:48:52;85.37;;;29.63;;
11735;SDS011;5924;51.398;7.088;2023-02-11T09:51:20;82.50;;;29.43;;
11735;SDS011;5924;51.398;7.088;2023-02-11T09:54:01;82.10;;;30.30;;
11735;SDS011;5924;51.398;7.088;2023-02-11T09:56:31;89.73;;;30.20;;
11735;SDS011;5924;51.398;7.088;2023-02-11T09:58:57;81.07;;;29.00;;
11735;SDS011;5924;51.398;7.088;2023-02-11T10:01:40;87.17;;;31.00;;
11735;SDS011;5924;51.398;7.088;2023-02-11T10:12:51;91.50;;;29.97;;
11735;SDS011;5924;51.398;7.088;2023-02-11T10:23:55;83.57;;;29.63;;
11735;SDS011;5924;51.398;7.088;2023-02-11T10:26:25;77.27;;;28.37;;
11735;SDS011;5924;51.398;7.088;2023-02-11T10:28:55;88.07;;;31.20;;
11735;SDS011;5924;51.398;7.088;2023-02-11T10:31:26;79.10;;;28.00;;
11735;SDS011;5924;51.398;7.088;2023-02-11T10:34:01;79.10;;;29.77;;
11735;SDS011;5924;51.398;7.088;2023-02-11T10:36:35;71.67;;;28.23;;
11735;SDS011;5924;51.398;7.088;2023-02-11T10:39:16;78.20;;;29.83;;
11735;SDS011;5924;51.398;7.088;2023-02-11T10:41:48;79.27;;;30.53;;
11735;SDS011;5924;51.398;7.088;2023-02-11T10:44:30;84.17;;;29.03;;
11735;SDS011;5924;51.398;7.088;2023-02-11T10:46:59;90.87;;;28.30;;
11735;SDS011;5924;51.398;7.088;2023-02-11T10:49:39;80.93;;;29.47;;
11735;SDS011;5924;51.398;7.088;2023-02-11T10:52:13;90.67;;;31.97;;
11735;SDS011;5924;51.398;7.088;2023-02-11T10:57:27;84.17;;;31.07;;
11735;SDS011;5924;51.398;7.088;2023-02-11T11:00:44;72.37;;;27.83;;
11735;SDS011;5924;51.398;7.088;2023-02-11T11:02:54;85.90;;;29.40;;
11735;SDS011;5924;51.398;7.088;2023-02-11T11:05:26;80.47;;;30.50;;
11735;SDS011;5924;51.398;7.088;2023-02-11T11:08:10;80.50;;;29.73;;
11735;SDS011;5924;51.398;7.088;2023-02-11T11:10:41;79.40;;;29.57;;
11735;SDS011;5924;51.398;7.088;2023-02-11T11:13:31;81.60;;;30.30;;
11735;SDS011;5924;51.398;7.088;2023-02-11T11:18:40;79.13;;;29.30;;
11735;SDS011;5924;51.398;7.088;2023-02-11T11:21:53;76.70;;;32.60;;
11735;SDS011;5924;51.398;7.088;2023-02-11T11:24:04;87.07;;;32.03;;
11735;SDS011;5924;51.398;7.088;2023-02-11T11:26:42;75.77;;;30.70;;
11735;SDS011;5924;51.398;7.088;2023-02-11T11:37:09;70.30;;;28.60;;
11735;SDS011;5924;51.398;7.088;2023-02-11T11:39:37;78.07;;;29.37;;
11735;SDS011;5924;51.398;7.088;2023-02-11T11:42:19;74.00;;;30.43;;
11735;SDS011;5924;51.398;7.088;2023-02-11T11:45:00;79.73;;;31.43;;
11735;SDS011;5924;51.398;7.088;2023-02-11T11:50:25;85.23;;;31.60;;
11735;SDS011;5924;51.398;7.088;2023-02-11T11:55:40;84.20;;;30.87;;
11735;SDS011;5924;51.398;7.088;2023-02-11T11:58:12;81.53;;;30.63;;
11735;SDS011;5924;51.398;7.088;2023-02-11T12:00:51;84.80;;;33.00;;
11735;SDS011;5924;51.398;7.088;2023-02-11T12:09:37;83.93;;;31.23;;
11735;SDS011;5924;51.398;7.088;2023-02-11T12:12:23;92.80;;;34.93;;
11735;SDS011;5924;51.398;7.088;2023-02-11T12:15:30;88.37;;;31.83;;
11735;SDS011;5924;51.398;7.088;2023-02-11T12:21:03;78.93;;;31.87;;
11735;SDS011;5924;51.398;7.088;2023-02-11T12:23:42;80.87;;;32.57;;
11735;SDS011;5924;51.398;7.088;2023-02-11T12:34:59;86.70;;;34.70;;
11735;SDS011;5924;51.398;7.088;2023-02-11T12:41:03;96.90;;;35.50;;
11735;SDS011;5924;51.398;7.088;2023-02-11T12:43:42;98.83;;;36.00;;
11735;SDS011;5924;51.398;7.088;2023-02-11T12:48:55;88.47;;;34.47;;
11735;SDS011;5924;51.398;7.088;2023-02-11T12:59:24;92.50;;;36.10;;
11735;SDS011;5924;51.398;7.088;2023-02-11T13:02:11;95.27;;;36.63;;
11735;SDS011;5924;51.398;7.088;2023-02-11T13:04:51;94.73;;;36.37;;
11735;SDS011;5924;51.398;7.088;2023-02-11T13:07:25;89.83;;;36.03;;
11735;SDS011;5924;51.398;7.088;2023-02-11T13:12:49;103.00;;;35.10;;
11735;SDS011;5924;51.398;7.088;2023-02-11T13:15:35;86.27;;;33.30;;
11735;SDS011;5924;51.398;7.088;2023-02-11T13:23:40;89.77;;;36.97;;
11735;SDS011;5924;51.398;7.088;2023-02-11T13:26:21;103.43;;;35.90;;
11735;SDS011;5924;51.398;7.088;2023-02-11T13:31:33;81.90;;;34.67;;
11735;SDS011;5924;51.398;7.088;2023-02-11T13:33:58;90.73;;;36.47;;
11735;SDS011;5924;51.398;7.088;2023-02-11T13:36:25;96.70;;;35.67;;
11735;SDS011;5924;51.398;7.088;2023-02-11T13:38:53;89.13;;;35.40;;
11735;SDS011;5924;51.398;7.088;2023-02-11T13:41:31;93.60;;;37.83;;
11735;SDS011;5924;51.398;7.088;2023-02-11T13:49:27;93.33;;;37.87;;
11735;SDS011;5924;51.398;7.088;2023-02-11T13:52:05;91.20;;;34.50;;
11735;SDS011;5924;51.398;7.088;2023-02-11T13:54:45;93.07;;;36.27;;
11735;SDS011;5924;51.398;7.088;2023-02-11T14:10:51;84.60;;;32.30;;
11735;SDS011;5924;51.398;7.088;2023-02-11T14:13:34;93.27;;;34.30;;
11735;SDS011;5924;51.398;7.088;2023-02-11T14:18:36;91.17;;;34.67;;
11735;SDS011;5924;51.398;7.088;2023-02-11T14:21:11;84.30;;;36.63;;
11735;SDS011;5924;51.398;7.088;2023-02-11T14:23:47;94.37;;;35.37;;
11735;SDS011;5924;51.398;7.088;2023-02-11T14:26:24;95.33;;;37.13;;
11735;SDS011;5924;51.398;7.088;2023-02-11T14:32:02;80.37;;;34.37;;
11735;SDS011;5924;51.398;7.088;2023-02-11T14:41:05;104.93;;;38.60;;
11735;SDS011;5924;51.398;7.088;2023-02-11T14:43:52;88.77;;;32.97;;
11735;SDS011;5924;51.398;7.088;2023-02-11T14:46:23;98.40;;;35.60;;
11735;SDS011;5924;51.398;7.088;2023-02-11T14:48:52;92.07;;;34.73;;
11735;SDS011;5924;51.398;7.088;2023-02-11T14:51:22;88.27;;;35.00;;
11735;SDS011;5924;51.398;7.088;2023-02-11T14:54:00;106.43;;;35.43;;
11735;SDS011;5924;51.398;7.088;2023-02-11T14:56:34;75.43;;;34.10;;
11735;SDS011;5924;51.398;7.088;2023-02-11T14:59:01;91.17;;;35.90;;
11735;SDS011;5924;51.398;7.088;2023-02-11T15:01:34;86.93;;;35.77;;
11735;SDS011;5924;51.398;7.088;2023-02-11T15:04:05;73.23;;;31.27;;
11735;SDS011;5924;51.398;7.088;2023-02-11T15:06:46;85.77;;;33.37;;
11735;SDS011;5924;51.398;7.088;2023-02-11T15:09:16;86.93;;;34.30;;
11735;SDS011;5924;51.398;7.088;2023-02-11T15:11:45;81.90;;;34.10;;
11735;SDS011;5924;51.398;7.088;2023-02-11T15:14:22;86.93;;;34.77;;
11735;SDS011;5924;51.398;7.088;2023-02-11T15:17:11;84.87;;;34.67;;
11735;SDS011;5924;51.398;7.088;2023-02-11T15:19:43;88.37;;;35.03;;
11735;SDS011;5924;51.398;7.088;2023-02-11T15:22:16;75.00;;;32.10;;
11735;SDS011;5924;51.398;7.088;2023-02-11T15:24:54;92.80;;;35.10;;
11735;SDS011;5924;51.398;7.088;2023-02-11T15:27:26;76.63;;;33.57;;
11735;SDS011;5924;51.398;7.088;2023-02-11T15:29:52;77.47;;;34.90;;
11735;SDS011;5924;51.398;7.088;2023-02-11T15:32:22;78.63;;;32.90;;
11735;SDS011;5924;51.398;7.088;2023-02-11T15:34:50;83.03;;;32.37;;
11735;SDS011;5924;51.398;7.088;2023-02-11T15:37:20;87.33;;;35.73;;
11735;SDS011;5924;51.398;7.088;2023-02-11T15:39:48;73.63;;;34.20;;
11735;SDS011;5924;51.398;7.088;2023-02-11T15:42:22;91.53;;;34.40;;
11735;SDS011;5924;51.398;7.088;2023-02-11T15:45:08;77.80;;;32.93;;
11735;SDS011;5924;51.398;7.088;2023-02-11T15:47:35;79.23;;;34.60;;
11735;SDS011;5924;51.398;7.088;2023-02-11T15:50:02;77.70;;;33.03;;
11735;SDS011;5924;51.398;7.088;2023-02-11T15:52:28;74.03;;;32.90;;
11735;SDS011;5924;51.398;7.088;2023-02-11T15:54:55;85.10;;;32.67;;
11735;SDS011;5924;51.398;7.088;2023-02-11T15:57:24;83.40;;;34.27;;
11735;SDS011;5924;51.398;7.088;2023-02-11T15:59:53;71.40;;;31.87;;
11735;SDS011;5924;51.398;7.088;2023-02-11T16:02:30;71.53;;;32.47;;
11735;SDS011;5924;51.398;7.088;2023-02-11T16:04:58;95.53;;;35.00;;
11735;SDS011;5924;51.398;7.088;2023-02-11T16:10:20;81.13;;;33.33;;
11735;SDS011;5924;51.398;7.088;2023-02-11T16:17:59;85.03;;;33.07;;
11735;SDS011;5924;51.398;7.088;2023-02-11T16:20:27;75.37;;;33.53;;
11735;SDS011;5924;51.398;7.088;2023-02-11T16:22:53;82.97;;;32.30;;
11735;SDS011;5924;51.398;7.088;2023-02-11T16:25:19;78.87;;;32.60;;
11735;SDS011;5924;51.398;7.088;2023-02-11T16:27:55;85.83;;;32.67;;
11735;SDS011;5924;51.398;7.088;2023-02-11T16:30:22;77.00;;;33.70;;
11735;SDS011;5924;51.398;7.088;2023-02-11T16:32:56;77.47;;;32.10;;
11735;SDS011;5924;51.398;7.088;2023-02-11T16:35:21;75.23;;;32.77;;
11735;SDS011;5924;51.398;7.088;2023-02-11T16:37:47;81.40;;;33.07;;
11735;SDS011;5924;51.398;7.088;2023-02-11T16:40:13;93.17;;;32.20;;
11735;SDS011;5924;51.398;7.088;2023-02-11T16:42:38;78.43;;;32.70;;
11735;SDS011;5924;51.398;7.088;2023-02-11T16:45:04;78.30;;;32.90;;
11735;SDS011;5924;51.398;7.088;2023-02-11T16:47:30;77.87;;;33.30;;
11735;SDS011;5924;51.398;7.088;2023-02-11T16:49:58;82.13;;;34.03;;
11735;SDS011;5924;51.398;7.088;2023-02-11T16:52:24;90.37;;;34.87;;
11735;SDS011;5924;51.398;7.088;2023-02-11T16:54:50;80.50;;;32.60;;
11735;SDS011;5924;51.398;7.088;2023-02-11T16:57:17;77.87;;;31.73;;
11735;SDS011;5924;51.398;7.088;2023-02-11T16:59:44;88.87;;;33.80;;
11735;SDS011;5924;51.398;7.088;2023-02-11T17:04:57;86.10;;;33.10;;
11735;SDS011;5924;51.398;7.088;2023-02-11T17:07:25;84.63;;;32.40;;
11735;SDS011;5924;51.398;7.088;2023-02-11T17:09:51;92.27;;;33.80;;
11735;SDS011;5924;51.398;7.088;2023-02-11T17:12:17;94.00;;;33.90;;
11735;SDS011;5924;51.398;7.088;2023-02-11T17:14:44;90.33;;;33.40;;
11735;SDS011;5924;51.398;7.088;2023-02-11T17:17:09;80.83;;;32.10;;
11735;SDS011;5924;51.398;7.088;2023-02-11T17:19:35;82.43;;;32.80;;
11735;SDS011;5924;51.398;7.088;2023-02-11T17:22:01;89.23;;;33.97;;
11735;SDS011;5924;51.398;7.088;2023-02-11T17:24:27;81.40;;;32.20;;
11735;SDS011;5924;51.398;7.088;2023-02-11T17:26:53;77.90;;;33.87;;
11735;SDS011;5924;51.398;7.088;2023-02-11T17:29:20;85.67;;;34.17;;